Time;durP1;ratioP1;P1;durP2;ratioP2;P2;SDS_P1;SDS_P2;PMS_P1;PMS_P2;Temp;Humidity;BMP_temperature;BMP_pressure;BME280_temperature;BME280_humidity;BME280_pressure;Samples;Min_cycle;Max_cycle;Signal;HPM_P1;HPM_P2
2023/01/30 00:00:55;;;;;;;13.35;7.60;;;12.40;94.90;;;;;;6215815;23;20348;-77
2023/01/30 00:03:21;;;;;;;11.70;7.72;;;12.40;95.00;;;;;;6189378;23;20442;-78
2023/01/30 00:05:47;;;;;;;13.98;8.15;;;;;;;;;;6188761;23;20468;-78
2023/01/30 00:08:13;;;;;;;12.52;7.70;;;12.50;94.90;;;;;;6216074;23;20020;-68
2023/01/30 00:10:40;;;;;;;13.90;7.68;;;;;;;;;;6189333;23;20105;-78
2023/01/30 00:13:06;;;;;;;10.65;7.05;;;;;;;;;;6215989;23;20028;-77
2023/01/30 00:15:32;;;;;;;16.02;7.53;;;;;;;;;;6215664;23;20091;-74
2023/01/30 00:17:57;;;;;;;12.52;6.93;;;12.60;93.90;;;;;;6215754;23;20035;-78
2023/01/30 00:20:24;;;;;;;10.45;6.50;;;;;;;;;;6216432;23;20016;-78
2023/01/30 00:22:49;;;;;;;11.30;6.55;;;12.50;95.10;;;;;;6216287;23;20401;-78
2023/01/30 00:25:15;;;;;;;10.65;6.38;;;12.20;94.80;;;;;;6216461;23;20017;-63
2023/01/30 00:27:41;;;;;;;12.15;6.85;;;12.30;94.90;;;;;;6216175;23;20070;-63
2023/01/30 00:30:07;;;;;;;12.68;6.60;;;12.40;93.80;;;;;;6216232;23;20017;-64
2023/01/30 00:32:33;;;;;;;11.48;6.40;;;12.40;94.90;;;;;;6189282;23;20021;-76
2023/01/30 00:34:59;;;;;;;10.93;6.15;;;12.30;93.80;;;;;;6189338;23;20055;-72
2023/01/30 00:37:25;;;;;;;10.27;6.32;;;;;;;;;;6216009;23;20080;-73
2023/01/30 00:39:51;;;;;;;9.63;6.10;;;;;;;;;;6189340;23;20024;-77
2023/01/30 00:47:47;;;;;;;10.00;6.00;;;12.40;93.50;;;;;;6167998;23;20020;-76
2023/01/30 00:50:13;;;;;;;10.98;5.80;;;12.70;93.90;;;;;;6140061;23;20431;-77
2023/01/30 00:52:39;;;;;;;9.32;5.15;;;;;;;;;;6189123;23;20147;-74
2023/01/30 00:55:06;;;;;;;9.93;5.47;;;12.40;95.00;;;;;;6188976;23;20070;-77
2023/01/30 00:57:32;;;;;;;8.88;5.15;;;;;;;;;;6216136;23;20023;-76
2023/01/30 00:59:58;;;;;;;10.55;5.38;;;;;;;;;;6188913;23;20446;-77
2023/01/30 01:02:24;;;;;;;10.15;5.25;;;12.60;95.00;;;;;;6164217;23;20016;-77
2023/01/30 01:04:50;;;;;;;9.55;4.95;;;;;;;;;;6164555;23;20216;-69
2023/01/30 01:07:16;;;;;;;9.90;5.03;;;12.60;95.10;;;;;;6216200;23;20099;-66
2023/01/30 01:09:42;;;;;;;9.55;5.28;;;;;;;;;;6188246;23;20048;-71
2023/01/30 01:12:08;;;;;;;10.27;5.10;;;;;;;;;;6215219;23;20353;-69
2023/01/30 01:14:34;;;;;;;7.57;4.25;;;;;;;;;;6189319;23;20013;-71
2023/01/30 01:17:00;;;;;;;9.32;4.70;;;12.40;94.90;;;;;;6214889;23;20027;-69
2023/01/30 01:19:26;;;;;;;10.05;5.38;;;;;;;;;;6215000;23;20355;-62
2023/01/30 01:21:52;;;;;;;9.07;4.60;;;;;;;;;;6188484;23;20025;-62
2023/01/30 01:24:19;;;;;;;8.05;4.40;;;;;;;;;;6215282;23;20012;-63
2023/01/30 01:26:45;;;;;;;8.65;4.20;;;;;;;;;;6215358;23;20020;-63
2023/01/30 01:29:15;;;;;;;10.48;4.50;;;12.60;93.60;;;;;;6215516;23;20013;-63
2023/01/30 01:31:41;;;;;;;10.27;4.40;;;;;;;;;;6214802;23;20016;-63
2023/01/30 01:34:08;;;;;;;8.90;4.10;;;;;;;;;;6215298;23;20016;-63
2023/01/30 01:36:34;;;;;;;8.32;4.38;;;;;;;;;;6214957;23;20027;-63
2023/01/30 01:39:00;;;;;;;9.10;4.75;;;;;;;;;;6188280;23;20454;-63
2023/01/30 01:41:26;;;;;;;7.53;4.20;;;;;;;;;;6215422;23;20062;-63
2023/01/30 01:43:59;;;;;;;9.35;4.25;;;12.60;93.20;;;;;;6215399;23;20144;-63
2023/01/30 01:46:33;;;;;;;7.38;3.83;;;12.20;95.00;;;;;;6215291;23;20023;-62
2023/01/30 01:48:59;;;;;;;;;;;12.30;93.90;;;;;;6163910;23;20021;-63
2023/01/30 01:51:32;;;;;;;9.18;4.10;;;12.60;95.10;;;;;;6163275;23;19923;-63
2023/01/30 01:54:13;;;;;;;8.45;3.83;;;12.50;93.20;;;;;;6188445;23;20337;-62
2023/01/30 01:56:40;;;;;;;8.18;3.85;;;;;;;;;;6189116;23;20386;-63
2023/01/30 01:59:26;;;;;;;8.57;3.80;;;12.70;95.10;;;;;;6188070;23;20462;-63
2023/01/30 02:01:54;;;;;;;8.63;3.92;;;12.50;95.10;;;;;;6214580;23;20048;-63
2023/01/30 02:05:00;;;;;;;5.75;3.05;;;12.60;94.00;;;;;;6188266;23;20020;-63
2023/01/30 02:07:06;;;;;;;6.32;3.10;;;12.40;95.00;;;;;;6191989;23;20043;-62
2023/01/30 02:09:31;;;;;;;5.70;2.85;;;12.70;95.10;;;;;;6138370;23;20017;-62
2023/01/30 02:11:58;;;;;;;5.53;2.88;;;12.90;95.20;;;;;;6188319;23;20515;-62
2023/01/30 02:14:24;;;;;;;5.85;2.63;;;12.90;95.20;;;;;;6187674;23;20356;-62
2023/01/30 02:16:49;;;;;;;6.32;2.83;;;12.50;94.00;;;;;;6188313;23;20024;-62
2023/01/30 02:19:42;;;;;;;6.18;3.00;;;12.70;93.90;;;;;;6173271;23;20456;-62
2023/01/30 02:22:42;;;;;;;4.75;2.42;;;12.60;93.30;;;;;;6091814;23;20025;-66
2023/01/30 02:25:33;;;;;;;5.43;2.58;;;12.50;93.30;;;;;;6158236;23;20017;-63
2023/01/30 02:28:20;;;;;;;4.85;2.17;;;12.40;93.30;;;;;;6158282;23;20435;-69
2023/01/30 02:31:01;;;;;;;6.85;2.45;;;12.40;95.10;;;;;;6159872;23;20107;-63
2023/01/30 02:33:30;;;;;;;4.72;2.40;;;12.70;95.10;;;;;;6158650;23;20473;-63
2023/01/30 02:35:59;;;;;;;4.93;2.38;;;;;;;;;;6160514;23;20067;-63
2023/01/30 02:38:31;;;;;;;4.32;2.13;;;;;;;;;;6160115;23;20017;-66
2023/01/30 02:40:57;;;;;;;5.97;2.28;;;;;;;;;;6136292;23;20048;-62
2023/01/30 02:43:30;;;;;;;5.60;2.10;;;;;;;;;;6159817;23;20021;-63
2023/01/30 02:45:59;;;;;;;3.88;1.80;;;12.70;95.10;;;;;;6160156;23;20024;-63
2023/01/30 02:48:47;;;;;;;5.63;2.33;;;12.80;93.80;;;;;;6111209;23;20013;-64
2023/01/30 02:51:30;;;;;;;5.07;2.00;;;12.60;93.90;;;;;;6139136;23;20020;-62
2023/01/30 02:53:56;;;;;;;;;;;12.60;93.90;;;;;;6138875;23;20080;-62
2023/01/30 02:56:22;;;;;;;3.95;1.75;;;;;;;;;;6160599;23;19955;-65
2023/01/30 02:58:49;;;;;;;4.88;1.88;;;;;;;;;;6159964;23;20032;-65
2023/01/30 03:01:39;;;;;;;5.35;2.08;;;12.90;93.10;;;;;;6135727;23;20028;-64
2023/01/30 03:04:17;;;;;;;5.72;2.00;;;12.90;95.10;;;;;;6186631;23;20343;-65
2023/01/30 03:07:06;;;;;;;4.65;1.90;;;12.70;93.20;;;;;;6161402;23;20336;-62
2023/01/30 03:10:10;;;;;;;5.03;1.90;;;13.00;95.00;;;;;;6160467;23;20013;-62
2023/01/30 03:12:42;;;;;;;5.47;2.30;;;12.80;95.00;;;;;;6129777;23;20096;-63
2023/01/30 03:15:16;;;;;;;5.40;1.98;;;12.80;94.90;;;;;;6159802;23;20020;-63
2023/01/30 03:17:43;;;;;;;6.22;2.05;;;12.60;94.90;;;;;;6136362;23;20017;-62
2023/01/30 03:20:11;;;;;;;7.30;2.33;;;12.80;92.80;;;;;;6135143;23;20021;-63
2023/01/30 03:22:37;;;;;;;5.78;2.38;;;13.00;94.90;;;;;;6135179;23;20079;-63
2023/01/30 03:25:03;;;;;;;4.47;1.98;;;;;;;;;;6186172;23;20451;-63
2023/01/30 03:27:29;;;;;;;5.80;2.15;;;;;;;;;;6186372;23;20020;-65
2023/01/30 03:29:55;;;;;;;4.80;2.00;;;12.90;95.00;;;;;;6160119;23;20021;-63
2023/01/30 03:32:21;;;;;;;6.47;1.90;;;;;;;;;;6159620;23;20021;-66
2023/01/30 03:34:47;;;;;;;5.93;2.22;;;;;;;;;;6158906;23;20033;-63
2023/01/30 03:37:13;;;;;;;6.90;2.28;;;12.90;94.80;;;;;;6186719;23;20025;-63
2023/01/30 03:39:39;;;;;;;4.75;2.00;;;13.10;94.90;;;;;;6185958;23;20067;-64
2023/01/30 03:42:04;;;;;;;7.00;2.38;;;13.00;93.70;;;;;;6135362;23;20088;-62
2023/01/30 03:44:30;;;;;;;9.65;2.47;;;13.10;94.80;;;;;;6134871;23;20024;-63
2023/01/30 03:46:56;;;;;;;9.60;2.22;;;13.10;95.10;;;;;;6159265;23;20024;-62
2023/01/30 03:49:22;;;;;;;6.47;2.25;;;13.00;94.80;;;;;;6159597;23;20052;-62
2023/01/30 03:51:47;;;;;;;7.20;2.35;;;13.20;94.90;;;;;;6186337;23;20017;-63
2023/01/30 03:54:13;;;;;;;8.07;2.38;;;13.10;94.90;;;;;;6158964;23;20027;-63
2023/01/30 03:56:39;;;;;;;7.22;2.70;;;12.60;94.50;;;;;;6186072;23;20119;-62
2023/01/30 03:59:05;;;;;;;7.45;1.98;;;13.00;95.10;;;;;;6185831;23;20020;-69
2023/01/30 04:01:30;;;;;;;8.57;2.35;;;13.00;94.90;;;;;;6186200;23;20024;-64
2023/01/30 04:03:57;;;;;;;8.05;2.45;;;;;;;;;;6159111;23;20017;-63
2023/01/30 04:06:22;;;;;;;7.50;2.25;;;13.10;94.90;;;;;;6159515;23;20031;-63
2023/01/30 04:08:52;;;;;;;7.65;2.40;;;13.20;93.50;;;;;;6185538;23;20479;-66
2023/01/30 04:11:18;;;;;;;8.07;2.72;;;;;;;;;;6159472;23;20474;-65
2023/01/30 04:13:44;;;;;;;7.20;2.33;;;;;;;;;;6185594;23;20108;-72
2023/01/30 04:16:19;;;;;;;6.57;2.10;;;13.00;94.80;;;;;;6185497;23;20492;-66
2023/01/30 04:18:45;;;;;;;7.00;2.22;;;;;;;;;;6193600;23;20080;-78
2023/01/30 04:21:11;;;;;;;9.02;2.17;;;13.00;94.30;;;;;;6188689;23;20032;-73
2023/01/30 04:23:37;;;;;;;6.13;2.22;;;13.30;93.80;;;;;;6216017;23;20016;-78
2023/01/30 04:26:03;;;;;;;7.18;2.38;;;;;;;;;;6188967;23;20048;-77
2023/01/30 04:28:29;;;;;;;11.57;2.20;;;13.20;95.00;;;;;;6215422;23;20012;-76
2023/01/30 04:30:55;;;;;;;11.88;3.15;;;13.10;94.90;;;;;;6188655;23;20063;-78
2023/01/30 04:33:20;;;;;;;8.63;2.78;;;13.10;94.90;;;;;;6188845;23;20017;-78
2023/01/30 04:35:56;;;;;;;9.00;2.35;;;12.90;93.70;;;;;;6215495;23;20078;-78
2023/01/30 04:38:22;;;;;;;10.18;2.35;;;;;;;;;;6215732;23;20017;-75
2023/01/30 04:40:49;;;;;;;7.95;2.40;;;;;;;;;;6188487;23;20071;-69
2023/01/30 04:43:15;;;;;;;8.50;2.63;;;;;;;;;;6215516;23;20393;-74
2023/01/30 04:45:44;;;;;;;5.45;2.03;;;13.00;95.00;;;;;;6215999;23;20320;-78
2023/01/30 04:48:10;;;;;;;8.55;2.53;;;;;;;;;;6188878;23;20086;-78
2023/01/30 04:50:36;;;;;;;8.23;2.40;;;13.10;95.00;;;;;;6215637;23;20023;-77
2023/01/30 04:53:02;;;;;;;6.88;2.05;;;13.10;95.00;;;;;;6215235;23;20075;-78
2023/01/30 04:55:27;;;;;;;8.38;2.75;;;12.90;95.10;;;;;;6215765;23;20011;-72
2023/01/30 04:57:53;;;;;;;8.80;2.47;;;12.80;95.00;;;;;;6215886;23;20024;-76
2023/01/30 05:00:19;;;;;;;7.85;2.33;;;13.20;95.00;;;;;;6214553;23;20414;-75
2023/01/30 05:02:45;;;;;;;9.50;2.75;;;13.10;95.00;;;;;;6188597;23;20020;-73
2023/01/30 05:05:10;;;;;;;7.97;2.25;;;13.00;95.00;;;;;;6189019;23;20374;-78
2023/01/30 05:07:37;;;;;;;7.55;2.38;;;;;;;;;;6216059;23;20036;-76
2023/01/30 05:10:03;;;;;;;8.00;2.40;;;13.00;93.30;;;;;;6188262;23;20024;-78
2023/01/30 05:12:29;;;;;;;10.50;2.58;;;13.30;95.20;;;;;;6215065;23;20021;-78
2023/01/30 05:14:55;;;;;;;8.38;2.38;;;;;;;;;;6215606;23;20008;-78
2023/01/30 05:17:21;;;;;;;8.77;2.70;;;13.10;95.00;;;;;;6215245;23;20078;-78
2023/01/30 05:19:47;;;;;;;7.32;1.90;;;;;;;;;;6163700;23;20439;-79
2023/01/30 05:22:13;;;;;;;8.45;2.35;;;13.10;95.00;;;;;;6188812;23;20466;-78
2023/01/30 05:24:39;;;;;;;7.43;2.10;;;;;;;;;;6139400;23;20023;-79
2023/01/30 05:27:05;;;;;;;9.02;2.67;;;13.00;94.90;;;;;;6187983;23;20103;-79
2023/01/30 05:29:31;;;;;;;7.22;2.78;;;;;;;;;;6188612;23;20102;-79
2023/01/30 05:31:57;;;;;;;7.47;2.45;;;;;;;;;;6163856;23;20113;-79
2023/01/30 05:34:23;;;;;;;8.23;2.10;;;13.30;95.10;;;;;;6213997;23;20092;-78
2023/01/30 05:36:49;;;;;;;8.10;2.75;;;;;;;;;;6215428;23;20628;-79
2023/01/30 05:39:15;;;;;;;11.05;2.28;;;;;;;;;;6188375;23;20074;-78
2023/01/30 05:41:41;;;;;;;8.38;2.58;;;13.10;95.10;;;;;;6215134;23;20024;-78
2023/01/30 05:44:06;;;;;;;6.68;2.10;;;13.10;93.90;;;;;;6214448;23;20016;-79
2023/01/30 05:46:32;;;;;;;7.65;2.50;;;12.90;95.00;;;;;;6214181;23;20029;-78
2023/01/30 05:48:58;;;;;;;8.63;2.53;;;;;;;;;;6215356;23;20070;-66
2023/01/30 05:51:25;;;;;;;9.55;2.50;;;13.10;95.00;;;;;;6215084;23;20020;-79
2023/01/30 05:53:51;;;;;;;9.38;2.20;;;;;;;;;;6164004;23;20020;-72
2023/01/30 05:56:17;;;;;;;7.30;2.10;;;;;;;;;;6189327;23;20048;-77
2023/01/30 05:58:48;;;;;;;8.35;2.30;;;13.10;95.10;;;;;;6215605;23;20400;-78
2023/01/30 06:01:14;;;;;;;10.80;2.63;;;;;;;;;;6190454;23;20386;-71
2023/01/30 06:03:40;;;;;;;7.13;2.17;;;13.40;95.10;;;;;;6216584;23;20074;-77
2023/01/30 06:06:06;;;;;;;9.48;2.50;;;13.40;94.00;;;;;;6217359;23;20021;-77
2023/01/30 06:08:32;;;;;;;9.90;2.63;;;13.20;95.10;;;;;;6217106;23;20024;-78
2023/01/30 06:11:03;;;;;;;8.25;2.65;;;13.20;95.10;;;;;;6217525;23;20308;-70
2023/01/30 06:13:29;;;;;;;8.15;2.00;;;;;;;;;;6217056;23;20447;-78
2023/01/30 06:15:55;;;;;;;9.32;2.63;;;;;;;;;;6166113;23;20020;-72
2023/01/30 06:18:22;;;;;;;7.60;2.80;;;;;;;;;;6216898;23;20020;-77
2023/01/30 06:20:48;;;;;;;8.32;2.40;;;;;;;;;;6189781;23;20028;-67
2023/01/30 06:23:14;;;;;;;9.20;2.03;;;13.10;95.00;;;;;;6217262;23;20017;-64
2023/01/30 06:25:47;;;;;;;11.40;2.35;;;13.30;95.10;;;;;;6164760;23;20106;-64
2023/01/30 06:28:13;;;;;;;11.02;2.58;;;;;;;;;;6216677;23;20015;-63
2023/01/30 06:30:39;;;;;;;8.13;2.15;;;13.20;95.10;;;;;;6216469;23;20103;-62
2023/01/30 06:33:05;;;;;;;8.40;2.50;;;;;;;;;;6190203;23;20343;-62
2023/01/30 06:35:30;;;;;;;10.10;2.38;;;13.10;95.00;;;;;;6216378;23;20028;-68
2023/01/30 06:37:57;;;;;;;9.90;2.70;;;;;;;;;;6190230;23;20016;-64
2023/01/30 06:40:23;;;;;;;9.13;2.28;;;;;;;;;;6190191;23;20017;-63
2023/01/30 06:42:49;;;;;;;6.95;2.60;;;13.00;95.20;;;;;;6215904;23;20070;-63
2023/01/30 06:45:16;;;;;;;8.88;2.67;;;13.40;95.10;;;;;;6165028;23;20359;-66
2023/01/30 06:47:45;;;;;;;7.65;2.17;;;13.10;93.00;;;;;;6216427;23;20016;-64
2023/01/30 06:50:11;;;;;;;8.07;2.40;;;13.20;95.00;;;;;;6216484;23;20083;-63
2023/01/30 06:52:45;;;;;;;8.00;2.80;;;13.40;93.20;;;;;;6190035;23;20024;-67
2023/01/30 06:55:11;;;;;;;8.18;2.17;;;12.80;94.90;;;;;;6216907;23;20098;-63
2023/01/30 06:57:37;;;;;;;7.72;2.20;;;13.20;95.00;;;;;;6216998;23;20025;-68
2023/01/30 07:00:04;;;;;;;8.63;2.38;;;13.20;93.70;;;;;;6216030;23;20084;-66
2023/01/30 07:02:34;;;;;;;7.40;2.45;;;;;;;;;;6189783;23;20351;-63
2023/01/30 07:05:01;;;;;;;9.70;2.58;;;13.30;95.20;;;;;;6216609;23;20017;-63
2023/01/30 07:07:27;;;;;;;10.43;2.40;;;13.30;93.90;;;;;;6190150;23;20442;-62
2023/01/30 07:09:53;;;;;;;10.05;2.67;;;;;;;;;;6164857;23;20096;-65
2023/01/30 07:12:19;;;;;;;8.20;2.35;;;13.30;95.00;;;;;;6190569;23;20021;-63
2023/01/30 07:14:45;;;;;;;7.78;2.17;;;;;;;;;;6215504;23;20450;-66
2023/01/30 07:17:11;;;;;;;10.52;2.75;;;13.40;94.90;;;;;;6216669;23;20028;-66
2023/01/30 07:19:37;;;;;;;11.65;2.33;;;13.30;93.80;;;;;;6169971;23;20351;-73
2023/01/30 07:22:04;;;;;;;8.20;2.13;;;13.20;94.90;;;;;;6186830;23;20028;-66
2023/01/30 07:24:30;;;;;;;10.25;2.30;;;13.20;93.70;;;;;;6159748;23;20044;-62
2023/01/30 07:26:55;;;;;;;11.55;2.55;;;13.20;94.70;;;;;;6158219;23;20025;-66
2023/01/30 07:29:21;;;;;;;11.23;2.40;;;;;;;;;;6186017;23;20014;-75
2023/01/30 07:31:47;;;;;;;10.65;2.50;;;13.30;94.80;;;;;;6159892;23;20036;-64
2023/01/30 07:34:13;;;;;;;10.60;2.42;;;;;;;;;;6160353;23;20398;-64
2023/01/30 07:36:39;;;;;;;7.88;2.20;;;13.40;94.80;;;;;;6155778;23;20029;-63
2023/01/30 07:39:05;;;;;;;10.45;2.53;;;13.50;94.80;;;;;;6184760;23;20068;-75
2023/01/30 07:41:31;;;;;;;10.63;2.67;;;;;;;;;;6184387;23;20355;-69
2023/01/30 07:43:57;;;;;;;9.48;2.60;;;13.40;94.90;;;;;;6184342;23;20089;-75
2023/01/30 07:46:23;;;;;;;10.52;2.92;;;13.50;94.70;;;;;;6158661;23;20021;-75
2023/01/30 07:48:49;;;;;;;10.88;2.60;;;;;;;;;;6158439;23;20067;-64
2023/01/30 07:51:15;;;;;;;11.52;2.75;;;13.10;94.60;;;;;;6185624;23;20024;-63
2023/01/30 07:53:41;;;;;;;7.65;2.30;;;;;;;;;;6158367;23;20013;-76
2023/01/30 07:56:08;;;;;;;8.25;2.50;;;13.30;94.60;;;;;;6185208;23;20025;-66
2023/01/30 07:58:34;;;;;;;10.35;2.83;;;;;;;;;;6184021;23;20009;-75
2023/01/30 08:01:00;;;;;;;10.00;2.80;;;13.50;93.50;;;;;;6183938;23;20032;-65
2023/01/30 08:03:26;;;;;;;11.20;2.78;;;;;;;;;;6183193;23;20024;-64
2023/01/30 08:05:52;;;;;;;11.02;2.70;;;;;;;;;;6133517;23;20363;-66
2023/01/30 08:08:18;;;;;;;10.20;2.70;;;13.60;94.60;;;;;;6159158;23;20052;-65
2023/01/30 08:10:45;;;;;;;8.52;2.75;;;;;;;;;;6184225;23;20067;-66
2023/01/30 08:13:11;;;;;;;11.15;3.00;;;13.50;94.40;;;;;;6182601;23;20384;-68
2023/01/30 08:15:37;;;;;;;13.30;2.75;;;;;;;;;;6186362;23;20020;-65
2023/01/30 08:18:03;;;;;;;11.43;2.63;;;13.50;94.60;;;;;;6186593;23;20372;-70
2023/01/30 08:20:28;;;;;;;11.98;3.45;;;13.60;94.50;;;;;;6214989;23;20055;-68
2023/01/30 08:22:55;;;;;;;9.48;2.60;;;;;;;;;;6216226;23;20324;-67
2023/01/30 08:25:21;;;;;;;10.52;3.20;;;;;;;;;;6188906;23;20047;-69
2023/01/30 08:27:47;;;;;;;14.85;3.03;;;13.40;94.50;;;;;;6189357;23;20028;-71
2023/01/30 08:30:13;;;;;;;11.10;2.60;;;13.80;94.50;;;;;;6215696;23;20133;-69
2023/01/30 08:32:39;;;;;;;11.70;2.80;;;13.50;94.50;;;;;;6216231;23;20017;-70
2023/01/30 08:35:05;;;;;;;13.95;3.15;;;;;;;;;;6215215;23;20017;-71
2023/01/30 08:37:31;;;;;;;9.70;2.72;;;;;;;;;;6216217;23;20016;-66
2023/01/30 08:39:57;;;;;;;10.77;2.65;;;;;;;;;;6216311;23;20087;-73
2023/01/30 08:42:26;;;;;;;12.63;2.95;;;13.60;94.50;;;;;;6215793;23;20110;-63
2023/01/30 08:44:54;;;;;;;9.90;2.65;;;13.30;94.30;;;;;;6214514;23;20351;-62
2023/01/30 08:47:22;;;;;;;10.63;3.25;;;13.70;94.40;;;;;;6215675;23;20105;-68
2023/01/30 08:49:50;;;;;;;7.72;2.63;;;13.90;94.50;;;;;;6215607;23;20016;-65
2023/01/30 08:52:16;;;;;;;11.40;2.60;;;14.00;94.50;;;;;;6215931;23;20017;-63
2023/01/30 08:54:41;;;;;;;14.43;3.17;;;13.70;94.40;;;;;;6215310;23;20044;-63
2023/01/30 08:57:07;;;;;;;11.82;3.20;;;13.70;94.30;;;;;;6188780;23;20017;-63
2023/01/30 08:59:33;;;;;;;12.75;3.28;;;13.70;94.30;;;;;;6189360;23;20020;-63
2023/01/30 09:01:59;;;;;;;10.55;3.00;;;13.70;94.40;;;;;;6215599;23;20023;-64
2023/01/30 09:04:25;;;;;;;11.30;2.97;;;13.70;94.30;;;;;;6189238;23;20024;-65
2023/01/30 09:06:51;;;;;;;12.43;3.25;;;13.80;94.30;;;;;;6215344;23;20353;-71
2023/01/30 09:09:17;;;;;;;15.55;3.15;;;14.10;94.30;;;;;;6189675;23;20029;-70
2023/01/30 09:11:43;;;;;;;11.05;3.17;;;13.80;94.20;;;;;;6189643;23;20083;-77
2023/01/30 09:14:08;;;;;;;9.85;2.72;;;13.70;94.20;;;;;;6216204;23;20058;-68
2023/01/30 09:16:34;;;;;;;10.63;2.78;;;;;;;;;;6189325;23;20016;-74
2023/01/30 09:19:01;;;;;;;13.35;3.55;;;;;;;;;;6215349;23;20323;-77
2023/01/30 09:21:27;;;;;;;9.35;2.60;;;13.90;94.20;;;;;;6216319;23;20346;-76
2023/01/30 09:23:55;;;;;;;13.93;3.28;;;13.60;92.70;;;;;;6189345;23;20025;-71
2023/01/30 09:26:20;;;;;;;10.05;2.97;;;13.80;94.20;;;;;;6164034;23;20013;-77
2023/01/30 09:28:46;;;;;;;9.98;2.85;;;13.80;94.10;;;;;;6215767;23;20017;-74
2023/01/30 09:31:12;;;;;;;12.48;3.60;;;13.90;94.20;;;;;;6215765;23;20027;-64
2023/01/30 09:33:38;;;;;;;11.93;3.05;;;14.10;94.20;;;;;;6215894;23;20009;-72
2023/01/30 09:36:04;;;;;;;13.30;3.40;;;13.80;94.10;;;;;;6215620;23;20013;-70
2023/01/30 09:38:30;;;;;;;10.35;3.45;;;13.90;92.90;;;;;;6215049;23;20362;-74
2023/01/30 09:40:59;;;;;;;12.77;3.50;;;13.90;92.20;;;;;;6216170;23;20058;-74
2023/01/30 09:43:43;;;;;;;10.73;3.00;;;13.80;92.00;;;;;;6215508;23;20046;-75
2023/01/30 09:46:39;;;;;;;11.75;3.08;;;13.90;92.30;;;;;;6215389;23;20342;-63
2023/01/30 09:49:28;;;;;;;10.98;3.45;;;14.10;93.00;;;;;;6215151;23;20023;-63
2023/01/30 09:52:02;;;;;;;9.23;2.78;;;13.80;92.10;;;;;;6166618;23;20390;-63
2023/01/30 09:54:33;;;;;;;13.77;3.25;;;14.00;94.10;;;;;;6215123;23;20021;-75
2023/01/30 09:57:10;;;;;;;13.20;3.00;;;14.20;93.00;;;;;;6189616;23;20016;-73
2023/01/30 09:59:59;;;;;;;11.82;2.92;;;13.90;92.80;;;;;;6215299;23;20091;-71
2023/01/30 10:02:39;;;;;;;10.55;3.20;;;13.90;92.10;;;;;;6188312;23;20382;-71
2023/01/30 10:05:05;;;;;;;11.55;3.53;;;13.70;94.00;;;;;;6166032;23;20020;-77
2023/01/30 10:07:39;;;;;;;12.07;2.75;;;14.00;92.70;;;;;;6139490;23;20020;-64
2023/01/30 10:10:29;;;;;;;11.25;2.85;;;14.10;94.00;;;;;;6164860;23;20023;-71
2023/01/30 10:13:04;;;;;;;12.23;3.08;;;14.00;92.80;;;;;;6214683;23;20025;-74
2023/01/30 10:15:43;;;;;;;22.52;4.20;;;;;;;;;;6188808;23;20019;-69
2023/01/30 10:18:15;;;;;;;25.17;5.43;;;14.00;94.00;;;;;;6215369;23;20075;-61
2023/01/30 10:21:19;;;;;;;17.23;3.47;;;14.30;92.70;;;;;;6215268;23;20028;-61
2023/01/30 10:24:06;;;;;;;23.30;4.13;;;14.10;92.10;;;;;;6171018;23;20021;-62
2023/01/30 10:26:32;;;;;;;18.95;3.85;;;14.10;92.70;;;;;;6215274;23;20028;-61
2023/01/30 10:29:21;;;;;;;19.98;3.65;;;14.20;92.50;;;;;;6215449;23;20347;-65
2023/01/30 10:32:06;;;;;;;16.92;3.38;;;14.00;92.60;;;;;;6199096;23;20462;-69
2023/01/30 10:34:45;;;;;;;15.07;3.75;;;14.10;92.60;;;;;;6188471;23;20028;-61
2023/01/30 10:37:29;;;;;;;17.60;3.63;;;14.20;93.90;;;;;;6189466;23;20382;-62
2023/01/30 10:40:23;;;;;;;13.27;3.35;;;14.00;92.50;;;;;;6215109;23;20080;-62
2023/01/30 10:43:00;;;;;;;11.05;3.10;;;14.00;92.60;;;;;;6159893;23;20024;-61
2023/01/30 10:45:51;;;;;;;11.07;3.35;;;14.10;93.90;;;;;;6189727;23;20016;-62
2023/01/30 10:48:41;;;;;;;12.50;3.55;;;14.00;92.10;;;;;;6145652;23;20025;-65
2023/01/30 10:51:32;;;;;;;12.52;3.55;;;14.00;92.00;;;;;;6215073;23;20067;-61
2023/01/30 10:54:20;;;;;;;11.55;3.38;;;14.20;92.40;;;;;;6217377;23;20078;-61
2023/01/30 10:57:17;;;;;;;14.13;3.47;;;14.10;92.10;;;;;;6190519;23;20099;-61
2023/01/30 10:59:55;;;;;;;13.05;3.33;;;14.10;91.90;;;;;;6190115;23;20475;-62
2023/01/30 11:02:41;;;;;;;13.85;3.78;;;14.50;92.10;;;;;;6163963;23;20020;-73
2023/01/30 11:05:15;;;;;;;10.98;3.42;;;14.00;93.80;;;;;;6190310;23;20028;-63
2023/01/30 11:07:41;;;;;;;11.05;3.00;;;14.30;93.80;;;;;;6190231;23;20021;-62
2023/01/30 11:10:16;;;;;;;10.32;2.90;;;14.60;92.60;;;;;;6216834;23;20083;-63
2023/01/30 11:12:42;;;;;;;9.88;2.78;;;14.50;93.70;;;;;;6215539;23;20023;-74
2023/01/30 11:15:09;;;;;;;8.85;2.45;;;;;;;;;;6188336;23;20048;-70
2023/01/30 11:17:44;;;;;;;12.10;2.75;;;14.60;92.40;;;;;;6165542;23;20067;-62
2023/01/30 11:20:16;;;;;;;9.68;2.60;;;;;;;;;;6189460;23;20044;-62
2023/01/30 11:23:21;;;;;;;25.75;4.32;;;;;;;;;;6189283;23;20316;-73
2023/01/30 11:25:49;;;;;;;27.65;3.45;;;14.70;93.50;;;;;;6066104;23;20019;-62
2023/01/30 11:28:21;;;;;;;16.73;2.83;;;14.70;93.40;;;;;;6066659;23;20015;-63
2023/01/30 11:30:54;;;;;;;14.40;2.47;;;14.60;92.10;;;;;;6042760;23;20027;-70
2023/01/30 11:33:21;;;;;;;15.85;3.40;;;14.90;93.30;;;;;;6066267;23;20019;-75
2023/01/30 11:36:04;;;;;;;12.95;3.08;;;14.90;91.40;;;;;;6042297;23;20401;-63
2023/01/30 11:38:31;;;;;;;12.43;2.60;;;14.90;93.30;;;;;;6066559;23;20084;-62
2023/01/30 11:41:09;;;;;;;16.08;3.20;;;14.70;91.30;;;;;;6066630;23;20019;-63
2023/01/30 11:43:36;;;;;;;22.38;3.40;;;14.80;93.30;;;;;;6066523;23;20695;-62
2023/01/30 11:46:02;;;;;;;10.52;2.55;;;14.70;93.20;;;;;;6042254;23;20019;-63
2023/01/30 11:48:29;;;;;;;13.05;2.88;;;14.80;93.20;;;;;;6042663;23;20479;-62
2023/01/30 11:51:01;;;;;;;11.50;3.13;;;;;;;;;;6042990;23;20049;-71
2023/01/30 11:53:39;;;;;;;11.23;2.45;;;14.80;93.10;;;;;;6066377;23;20389;-74
2023/01/30 11:56:25;;;;;;;11.60;2.58;;;;;;;;;;6115006;23;20016;-62
2023/01/30 11:59:17;;;;;;;9.95;2.35;;;14.50;91.80;;;;;;6189781;23;20020;-62
2023/01/30 12:01:43;;;;;;;13.18;2.78;;;;;;;;;;6146829;23;20485;-62
2023/01/30 12:04:10;;;;;;;14.43;2.83;;;14.40;93.10;;;;;;6216605;23;20126;-62
2023/01/30 12:06:38;;;;;;;9.15;2.63;;;14.60;93.10;;;;;;6189203;23;20017;-62
2023/01/30 12:09:04;;;;;;;10.00;2.55;;;15.00;93.00;;;;;;6189891;23;20498;-62
2023/01/30 12:11:36;;;;;;;13.68;2.97;;;14.90;92.90;;;;;;6215887;23;20058;-74
2023/01/30 12:14:21;;;;;;;10.52;2.78;;;15.00;92.90;;;;;;6216043;23;20482;-74
2023/01/30 12:16:53;;;;;;;10.13;2.53;;;14.90;92.90;;;;;;6215729;23;20100;-71
2023/01/30 12:19:40;;;;;;;11.02;2.28;;;14.90;92.90;;;;;;6174453;23;20021;-62
2023/01/30 12:22:43;;;;;;;16.27;2.90;;;14.90;90.80;;;;;;6179238;23;20025;-74
2023/01/30 12:25:13;;;;;;;13.45;3.38;;;15.10;91.00;;;;;;6123474;23;20439;-62
2023/01/30 12:27:53;;;;;;;14.13;2.55;;;15.00;90.80;;;;;;6158703;23;20495;-74
2023/01/30 12:30:35;;;;;;;10.18;3.08;;;14.90;92.60;;;;;;6161412;23;20017;-62
2023/01/30 12:33:05;;;;;;;9.45;2.70;;;14.90;92.70;;;;;;6185549;23;20021;-62
2023/01/30 12:35:37;;;;;;;13.05;3.10;;;14.90;90.80;;;;;;6160874;23;20017;-67
2023/01/30 12:38:21;;;;;;;15.50;2.95;;;14.60;91.20;;;;;;6186217;23;20044;-75
2023/01/30 12:40:53;;;;;;;11.55;2.90;;;15.00;92.60;;;;;;6185631;23;20096;-74
2023/01/30 12:43:43;;;;;;;13.77;3.40;;;14.90;92.60;;;;;;6185473;23;20014;-74
2023/01/30 12:46:18;;;;;;;13.07;3.22;;;14.80;90.60;;;;;;6163006;23;20021;-72
2023/01/30 12:49:00;;;;;;;13.20;3.25;;;14.80;91.20;;;;;;6183662;23;20092;-63
2023/01/30 12:51:48;;;;;;;7.47;2.42;;;14.80;90.60;;;;;;6136757;23;20047;-74
2023/01/30 12:54:23;;;;;;;13.77;2.92;;;15.10;90.70;;;;;;6159502;23;20350;-68
2023/01/30 12:57:08;;;;;;;11.32;3.17;;;14.90;90.70;;;;;;6185129;23;20021;-62
2023/01/30 12:59:53;;;;;;;11.05;2.83;;;15.00;92.50;;;;;;6185264;23;20028;-74
2023/01/30 13:02:34;;;;;;;13.63;3.20;;;;;;;;;;6110959;23;20067;-72
2023/01/30 13:05:05;;;;;;;10.15;2.58;;;14.90;92.30;;;;;;6159792;23;20092;-74
2023/01/30 13:07:45;;;;;;;14.00;2.90;;;14.80;90.50;;;;;;6158841;23;20088;-66
2023/01/30 13:10:38;;;;;;;11.23;3.20;;;14.80;90.50;;;;;;6159847;23;20347;-62
2023/01/30 13:13:07;;;;;;;17.05;3.28;;;15.00;92.40;;;;;;6159215;23;20049;-63
2023/01/30 13:15:39;;;;;;;12.10;3.22;;;14.80;90.30;;;;;;6185477;23;20025;-70
2023/01/30 13:18:17;;;;;;;19.58;3.10;;;14.90;92.50;;;;;;6185647;23;20335;-61
2023/01/30 13:20:47;;;;;;;28.45;4.13;;;;;;;;;;6159534;23;20025;-61
2023/01/30 13:23:15;;;;;;;25.27;4.53;;;14.70;92.50;;;;;;6185615;23;20024;-62
2023/01/30 13:25:53;;;;;;;41.45;4.82;;;14.40;92.40;;;;;;6184872;23;20436;-63
2023/01/30 13:28:23;;;;;;;25.67;4.53;;;14.90;92.50;;;;;;6158527;23;20063;-71
2023/01/30 13:30:49;;;;;;;26.15;4.28;;;14.70;92.50;;;;;;6184422;23;20017;-63
2023/01/30 13:33:24;;;;;;;21.23;3.78;;;14.60;91.20;;;;;;6159917;23;20367;-61
2023/01/30 13:35:55;;;;;;;21.02;4.05;;;14.80;92.50;;;;;;6136307;23;20459;-62